Boa Vista, Brazil
Current Conditions -  °F | °C
As of 6:00 PM on Wednesday 26 Nov 2014 (Local Time) from SBBV Reporting Station
Rain Showers Rain Showers  
Wind Chill: 84°   Ceiling: Unl
Heat Index: 86°   Visibility: 6mi
Dew Point: 66°   Wind: 2mph
Humidity: 55%   Direction: 10°N
Pressure: NA   Gusts: NA
Location:  2.83°N, 60.66°W
Report Text: SBBV 262200Z 01002KT 9999 VCSH SCT040 FEW045TCU SCT080 29/19 Q1007
Loading
Personal Weather Stations






























Interactive Weather Map New forecast layout! Learn more

10-Day Weather Forecast

Advertisements
Track Severe Weather on mobile